sensor_id;sensor_type;location;lat;lon;timestamp;P1;durP1;ratioP1;P2;durP2;ratioP2
48552;SDS011;34335;51.566;6.994;2023-02-04T00:00:14;3.20;;;0.77;;
48552;SDS011;34335;51.566;6.994;2023-02-04T00:02:44;5.32;;;1.15;;
48552;SDS011;34335;51.566;6.994;2023-02-04T00:05:09;10.52;;;1.23;;
48552;SDS011;34335;51.566;6.994;2023-02-04T00:07:36;5.53;;;0.90;;
48552;SDS011;34335;51.566;6.994;2023-02-04T00:10:02;3.25;;;0.82;;
48552;SDS011;34335;51.566;6.994;2023-02-04T00:12:30;9.35;;;0.95;;
48552;SDS011;34335;51.566;6.994;2023-02-04T00:14:55;5.50;;;0.82;;
48552;SDS011;34335;51.566;6.994;2023-02-04T00:17:20;1.77;;;0.70;;
48552;SDS011;34335;51.566;6.994;2023-02-04T00:19:46;2.10;;;0.73;;
48552;SDS011;34335;51.566;6.994;2023-02-04T00:22:11;7.95;;;1.25;;
48552;SDS011;34335;51.566;6.994;2023-02-04T00:24:36;5.05;;;0.93;;
48552;SDS011;34335;51.566;6.994;2023-02-04T00:27:02;0.95;;;0.50;;
48552;SDS011;34335;51.566;6.994;2023-02-04T00:29:28;1.70;;;0.90;;
48552;SDS011;34335;51.566;6.994;2023-02-04T00:31:54;6.53;;;1.02;;
48552;SDS011;34335;51.566;6.994;2023-02-04T00:34:19;7.37;;;1.77;;
48552;SDS011;34335;51.566;6.994;2023-02-04T00:36:44;2.05;;;0.90;;
48552;SDS011;34335;51.566;6.994;2023-02-04T00:39:10;11.40;;;1.35;;
48552;SDS011;34335;51.566;6.994;2023-02-04T00:41:35;1.58;;;0.73;;
48552;SDS011;34335;51.566;6.994;2023-02-04T00:44:00;1.10;;;0.63;;
48552;SDS011;34335;51.566;6.994;2023-02-04T00:46:26;1.77;;;0.50;;
48552;SDS011;34335;51.566;6.994;2023-02-04T00:48:51;7.80;;;1.20;;
48552;SDS011;34335;51.566;6.994;2023-02-04T00:51:16;2.28;;;1.02;;
48552;SDS011;34335;51.566;6.994;2023-02-04T00:53:42;1.35;;;0.63;;
48552;SDS011;34335;51.566;6.994;2023-02-04T00:56:07;3.30;;;0.50;;
48552;SDS011;34335;51.566;6.994;2023-02-04T00:58:32;4.30;;;1.10;;
48552;SDS011;34335;51.566;6.994;2023-02-04T01:00:58;3.03;;;0.80;;
48552;SDS011;34335;51.566;6.994;2023-02-04T01:03:23;2.22;;;0.75;;
48552;SDS011;34335;51.566;6.994;2023-02-04T01:05:48;2.00;;;0.68;;
48552;SDS011;34335;51.566;6.994;2023-02-04T01:08:13;4.35;;;0.85;;
48552;SDS011;34335;51.566;6.994;2023-02-04T01:10:39;4.03;;;0.60;;
48552;SDS011;34335;51.566;6.994;2023-02-04T01:13:04;2.23;;;0.80;;
48552;SDS011;34335;51.566;6.994;2023-02-04T01:15:29;2.25;;;0.75;;
48552;SDS011;34335;51.566;6.994;2023-02-04T01:17:55;7.85;;;0.98;;
48552;SDS011;34335;51.566;6.994;2023-02-04T01:20:20;0.40;;;0.40;;
48552;SDS011;34335;51.566;6.994;2023-02-04T01:22:45;4.78;;;0.80;;
48552;SDS011;34335;51.566;6.994;2023-02-04T01:25:11;2.53;;;0.57;;
48552;SDS011;34335;51.566;6.994;2023-02-04T01:27:36;1.00;;;0.68;;
48552;SDS011;34335;51.566;6.994;2023-02-04T01:30:02;1.13;;;0.63;;
48552;SDS011;34335;51.566;6.994;2023-02-04T01:32:29;5.22;;;0.73;;
48552;SDS011;34335;51.566;6.994;2023-02-04T01:34:54;3.40;;;0.73;;
48552;SDS011;34335;51.566;6.994;2023-02-04T01:37:19;4.80;;;1.10;;
48552;SDS011;34335;51.566;6.994;2023-02-04T01:39:45;6.13;;;1.30;;
48552;SDS011;34335;51.566;6.994;2023-02-04T01:42:11;1.30;;;0.60;;
48552;SDS011;34335;51.566;6.994;2023-02-04T01:44:36;4.60;;;1.05;;
48552;SDS011;34335;51.566;6.994;2023-02-04T01:47:02;3.70;;;1.08;;
48552;SDS011;34335;51.566;6.994;2023-02-04T01:49:27;2.00;;;1.13;;
48552;SDS011;34335;51.566;6.994;2023-02-04T01:51:53;0.60;;;0.50;;
48552;SDS011;34335;51.566;6.994;2023-02-04T01:54:18;1.98;;;0.63;;
48552;SDS011;34335;51.566;6.994;2023-02-04T01:56:45;1.77;;;0.65;;
48552;SDS011;34335;51.566;6.994;2023-02-04T01:59:13;5.40;;;1.00;;
48552;SDS011;34335;51.566;6.994;2023-02-04T02:01:40;2.70;;;0.77;;
48552;SDS011;34335;51.566;6.994;2023-02-04T02:04:08;5.03;;;1.17;;
48552;SDS011;34335;51.566;6.994;2023-02-04T02:09:57;2.58;;;1.08;;
48552;SDS011;34335;51.566;6.994;2023-02-04T02:12:22;0.82;;;0.52;;
48552;SDS011;34335;51.566;6.994;2023-02-04T02:14:48;12.97;;;1.40;;
48552;SDS011;34335;51.566;6.994;2023-02-04T02:17:13;5.47;;;1.17;;
48552;SDS011;34335;51.566;6.994;2023-02-04T02:19:39;0.87;;;0.57;;
48552;SDS011;34335;51.566;6.994;2023-02-04T02:22:09;4.97;;;1.15;;
48552;SDS011;34335;51.566;6.994;2023-02-04T02:24:40;1.08;;;0.32;;
48552;SDS011;34335;51.566;6.994;2023-02-04T02:27:06;4.23;;;1.17;;
48552;SDS011;34335;51.566;6.994;2023-02-04T02:29:34;9.43;;;0.95;;
48552;SDS011;34335;51.566;6.994;2023-02-04T02:32:01;6.88;;;0.70;;
48552;SDS011;34335;51.566;6.994;2023-02-04T02:34:26;5.03;;;0.80;;
48552;SDS011;34335;51.566;6.994;2023-02-04T02:36:54;1.77;;;0.75;;
48552;SDS011;34335;51.566;6.994;2023-02-04T02:39:20;4.20;;;0.80;;
48552;SDS011;34335;51.566;6.994;2023-02-04T02:41:46;2.80;;;0.70;;
48552;SDS011;34335;51.566;6.994;2023-02-04T02:44:12;8.18;;;1.00;;
48552;SDS011;34335;51.566;6.994;2023-02-04T02:46:39;3.63;;;0.75;;
48552;SDS011;34335;51.566;6.994;2023-02-04T02:49:05;5.75;;;1.15;;
48552;SDS011;34335;51.566;6.994;2023-02-04T02:51:30;15.73;;;1.45;;
48552;SDS011;34335;51.566;6.994;2023-02-04T02:53:56;1.17;;;0.60;;
48552;SDS011;34335;51.566;6.994;2023-02-04T02:56:22;2.22;;;0.73;;
48552;SDS011;34335;51.566;6.994;2023-02-04T02:58:47;6.55;;;0.93;;
48552;SDS011;34335;51.566;6.994;2023-02-04T03:01:13;5.90;;;0.70;;
48552;SDS011;34335;51.566;6.994;2023-02-04T03:03:40;2.17;;;0.75;;
48552;SDS011;34335;51.566;6.994;2023-02-04T03:06:14;2.75;;;0.90;;
48552;SDS011;34335;51.566;6.994;2023-02-04T03:08:42;6.57;;;0.88;;
48552;SDS011;34335;51.566;6.994;2023-02-04T03:11:09;0.85;;;0.55;;
48552;SDS011;34335;51.566;6.994;2023-02-04T03:13:34;7.40;;;1.10;;
48552;SDS011;34335;51.566;6.994;2023-02-04T03:16:01;3.50;;;0.60;;
48552;SDS011;34335;51.566;6.994;2023-02-04T03:18:28;4.50;;;0.95;;
48552;SDS011;34335;51.566;6.994;2023-02-04T03:20:54;0.75;;;0.60;;
48552;SDS011;34335;51.566;6.994;2023-02-04T03:23:20;5.35;;;0.95;;
48552;SDS011;34335;51.566;6.994;2023-02-04T03:25:45;8.68;;;1.05;;
48552;SDS011;34335;51.566;6.994;2023-02-04T03:28:10;5.65;;;0.80;;
48552;SDS011;34335;51.566;6.994;2023-02-04T03:30:36;2.22;;;0.80;;
48552;SDS011;34335;51.566;6.994;2023-02-04T03:33:01;3.42;;;0.85;;
48552;SDS011;34335;51.566;6.994;2023-02-04T03:35:27;4.78;;;0.57;;
48552;SDS011;34335;51.566;6.994;2023-02-04T03:37:52;10.38;;;1.67;;
48552;SDS011;34335;51.566;6.994;2023-02-04T03:40:17;2.08;;;0.85;;
48552;SDS011;34335;51.566;6.994;2023-02-04T03:42:42;1.65;;;0.82;;
48552;SDS011;34335;51.566;6.994;2023-02-04T03:45:08;6.30;;;1.30;;
48552;SDS011;34335;51.566;6.994;2023-02-04T03:47:33;6.93;;;1.23;;
48552;SDS011;34335;51.566;6.994;2023-02-04T03:49:58;12.88;;;0.82;;
48552;SDS011;34335;51.566;6.994;2023-02-04T03:52:24;8.17;;;0.90;;
48552;SDS011;34335;51.566;6.994;2023-02-04T03:54:49;1.92;;;0.70;;
48552;SDS011;34335;51.566;6.994;2023-02-04T03:57:14;4.37;;;1.40;;
48552;SDS011;34335;51.566;6.994;2023-02-04T03:59:40;2.10;;;1.30;;
48552;SDS011;34335;51.566;6.994;2023-02-04T04:02:06;7.05;;;1.25;;
48552;SDS011;34335;51.566;6.994;2023-02-04T04:04:31;3.80;;;0.88;;
48552;SDS011;34335;51.566;6.994;2023-02-04T04:06:57;4.78;;;0.70;;
48552;SDS011;34335;51.566;6.994;2023-02-04T04:09:22;14.00;;;1.35;;
48552;SDS011;34335;51.566;6.994;2023-02-04T04:11:47;1.02;;;0.80;;
48552;SDS011;34335;51.566;6.994;2023-02-04T04:14:13;5.50;;;0.95;;
48552;SDS011;34335;51.566;6.994;2023-02-04T04:16:38;2.85;;;0.68;;
48552;SDS011;34335;51.566;6.994;2023-02-04T04:19:04;2.37;;;0.70;;
48552;SDS011;34335;51.566;6.994;2023-02-04T04:21:29;4.07;;;1.20;;
48552;SDS011;34335;51.566;6.994;2023-02-04T04:23:54;2.75;;;0.68;;
48552;SDS011;34335;51.566;6.994;2023-02-04T04:26:20;12.45;;;1.17;;
48552;SDS011;34335;51.566;6.994;2023-02-04T04:28:45;13.20;;;1.58;;
48552;SDS011;34335;51.566;6.994;2023-02-04T04:31:10;3.72;;;0.73;;
48552;SDS011;34335;51.566;6.994;2023-02-04T04:33:36;1.58;;;0.60;;
48552;SDS011;34335;51.566;6.994;2023-02-04T04:36:02;5.05;;;1.17;;
48552;SDS011;34335;51.566;6.994;2023-02-04T04:38:28;3.90;;;0.88;;
48552;SDS011;34335;51.566;6.994;2023-02-04T04:40:53;1.80;;;1.07;;
48552;SDS011;34335;51.566;6.994;2023-02-04T04:43:18;2.70;;;0.83;;
48552;SDS011;34335;51.566;6.994;2023-02-04T04:45:44;3.42;;;0.82;;
48552;SDS011;34335;51.566;6.994;2023-02-04T04:48:09;1.43;;;0.57;;
48552;SDS011;34335;51.566;6.994;2023-02-04T04:50:34;9.55;;;0.90;;
48552;SDS011;34335;51.566;6.994;2023-02-04T04:52:59;9.10;;;0.97;;
48552;SDS011;34335;51.566;6.994;2023-02-04T04:55:25;2.33;;;1.23;;
48552;SDS011;34335;51.566;6.994;2023-02-04T04:57:50;11.63;;;0.90;;
48552;SDS011;34335;51.566;6.994;2023-02-04T05:00:16;10.57;;;0.77;;
48552;SDS011;34335;51.566;6.994;2023-02-04T05:02:44;2.47;;;0.55;;
48552;SDS011;34335;51.566;6.994;2023-02-04T05:05:09;3.75;;;0.73;;
48552;SDS011;34335;51.566;6.994;2023-02-04T05:07:35;4.68;;;0.80;;
48552;SDS011;34335;51.566;6.994;2023-02-04T05:10:00;1.48;;;0.60;;
48552;SDS011;34335;51.566;6.994;2023-02-04T05:12:26;2.58;;;1.20;;
48552;SDS011;34335;51.566;6.994;2023-02-04T05:14:52;2.88;;;0.70;;
48552;SDS011;34335;51.566;6.994;2023-02-04T05:17:17;1.50;;;1.03;;
48552;SDS011;34335;51.566;6.994;2023-02-04T05:19:42;5.18;;;1.10;;
48552;SDS011;34335;51.566;6.994;2023-02-04T05:22:08;10.93;;;0.75;;
48552;SDS011;34335;51.566;6.994;2023-02-04T05:24:33;3.88;;;0.77;;
48552;SDS011;34335;51.566;6.994;2023-02-04T05:26:58;1.08;;;0.50;;
48552;SDS011;34335;51.566;6.994;2023-02-04T05:29:24;4.23;;;0.73;;
48552;SDS011;34335;51.566;6.994;2023-02-04T05:31:49;1.08;;;0.52;;
48552;SDS011;34335;51.566;6.994;2023-02-04T05:34:14;2.53;;;0.73;;
48552;SDS011;34335;51.566;6.994;2023-02-04T05:36:39;5.45;;;0.95;;
48552;SDS011;34335;51.566;6.994;2023-02-04T05:39:05;5.00;;;0.98;;
48552;SDS011;34335;51.566;6.994;2023-02-04T05:41:30;7.82;;;1.48;;
48552;SDS011;34335;51.566;6.994;2023-02-04T05:43:56;2.35;;;1.02;;
48552;SDS011;34335;51.566;6.994;2023-02-04T05:46:21;7.90;;;0.93;;
48552;SDS011;34335;51.566;6.994;2023-02-04T05:48:46;3.17;;;1.02;;
48552;SDS011;34335;51.566;6.994;2023-02-04T05:51:11;8.00;;;1.10;;
48552;SDS011;34335;51.566;6.994;2023-02-04T05:53:37;6.80;;;1.20;;
48552;SDS011;34335;51.566;6.994;2023-02-04T05:56:02;1.37;;;0.67;;
48552;SDS011;34335;51.566;6.994;2023-02-04T05:58:27;1.20;;;0.73;;
48552;SDS011;34335;51.566;6.994;2023-02-04T06:00:57;1.30;;;0.50;;
48552;SDS011;34335;51.566;6.994;2023-02-04T06:03:26;4.60;;;0.60;;
48552;SDS011;34335;51.566;6.994;2023-02-04T06:05:52;1.05;;;0.55;;
48552;SDS011;34335;51.566;6.994;2023-02-04T06:08:18;4.57;;;1.23;;
48552;SDS011;34335;51.566;6.994;2023-02-04T06:10:43;0.65;;;0.38;;
48552;SDS011;34335;51.566;6.994;2023-02-04T06:13:08;4.60;;;0.90;;
48552;SDS011;34335;51.566;6.994;2023-02-04T06:15:34;5.95;;;0.95;;
48552;SDS011;34335;51.566;6.994;2023-02-04T06:17:59;1.60;;;0.73;;
48552;SDS011;34335;51.566;6.994;2023-02-04T06:20:24;2.00;;;0.97;;
48552;SDS011;34335;51.566;6.994;2023-02-04T06:22:50;3.90;;;0.63;;
48552;SDS011;34335;51.566;6.994;2023-02-04T06:25:15;1.20;;;0.47;;
48552;SDS011;34335;51.566;6.994;2023-02-04T06:27:41;5.65;;;0.68;;
48552;SDS011;34335;51.566;6.994;2023-02-04T06:30:07;2.33;;;0.82;;
48552;SDS011;34335;51.566;6.994;2023-02-04T06:32:34;10.70;;;0.93;;
48552;SDS011;34335;51.566;6.994;2023-02-04T06:34:59;6.07;;;0.75;;
48552;SDS011;34335;51.566;6.994;2023-02-04T06:37:24;4.27;;;0.87;;
48552;SDS011;34335;51.566;6.994;2023-02-04T06:39:50;2.22;;;1.00;;
48552;SDS011;34335;51.566;6.994;2023-02-04T06:42:16;4.65;;;0.77;;
48552;SDS011;34335;51.566;6.994;2023-02-04T06:44:41;4.60;;;1.20;;
48552;SDS011;34335;51.566;6.994;2023-02-04T06:47:06;5.60;;;0.93;;
48552;SDS011;34335;51.566;6.994;2023-02-04T06:49:32;8.77;;;1.08;;
48552;SDS011;34335;51.566;6.994;2023-02-04T06:51:57;3.20;;;0.73;;
48552;SDS011;34335;51.566;6.994;2023-02-04T06:54:22;4.13;;;0.60;;
48552;SDS011;34335;51.566;6.994;2023-02-04T06:56:48;3.92;;;1.23;;
48552;SDS011;34335;51.566;6.994;2023-02-04T06:59:13;7.55;;;1.10;;
48552;SDS011;34335;51.566;6.994;2023-02-04T07:01:38;7.67;;;1.17;;
48552;SDS011;34335;51.566;6.994;2023-02-04T07:04:04;10.68;;;0.63;;
48552;SDS011;34335;51.566;6.994;2023-02-04T07:06:29;5.43;;;1.10;;
48552;SDS011;34335;51.566;6.994;2023-02-04T07:08:54;3.30;;;0.60;;
48552;SDS011;34335;51.566;6.994;2023-02-04T07:11:19;4.13;;;1.10;;
48552;SDS011;34335;51.566;6.994;2023-02-04T07:13:45;1.10;;;0.68;;
48552;SDS011;34335;51.566;6.994;2023-02-04T07:16:10;2.58;;;1.17;;
48552;SDS011;34335;51.566;6.994;2023-02-04T07:18:35;3.70;;;0.95;;
48552;SDS011;34335;51.566;6.994;2023-02-04T07:21:01;4.85;;;1.05;;
48552;SDS011;34335;51.566;6.994;2023-02-04T07:23:26;3.45;;;0.50;;
48552;SDS011;34335;51.566;6.994;2023-02-04T07:25:52;3.00;;;0.77;;
48552;SDS011;34335;51.566;6.994;2023-02-04T07:28:18;5.28;;;0.77;;
48552;SDS011;34335;51.566;6.994;2023-02-04T07:30:44;4.00;;;0.60;;
48552;SDS011;34335;51.566;6.994;2023-02-04T07:33:09;0.60;;;0.40;;
48552;SDS011;34335;51.566;6.994;2023-02-04T07:35:35;5.50;;;1.10;;
48552;SDS011;34335;51.566;6.994;2023-02-04T07:38:01;8.25;;;1.40;;
48552;SDS011;34335;51.566;6.994;2023-02-04T07:40:27;1.55;;;0.70;;
48552;SDS011;34335;51.566;6.994;2023-02-04T07:42:52;3.10;;;0.77;;
48552;SDS011;34335;51.566;6.994;2023-02-04T07:45:17;2.20;;;0.57;;
48552;SDS011;34335;51.566;6.994;2023-02-04T07:47:43;2.83;;;0.57;;
48552;SDS011;34335;51.566;6.994;2023-02-04T07:50:08;2.67;;;0.70;;
48552;SDS011;34335;51.566;6.994;2023-02-04T07:52:33;4.32;;;0.80;;
48552;SDS011;34335;51.566;6.994;2023-02-04T07:54:59;3.13;;;1.00;;
48552;SDS011;34335;51.566;6.994;2023-02-04T07:57:24;2.00;;;0.57;;
48552;SDS011;34335;51.566;6.994;2023-02-04T07:59:49;7.00;;;1.00;;
48552;SDS011;34335;51.566;6.994;2023-02-04T08:02:15;4.90;;;0.95;;
48552;SDS011;34335;51.566;6.994;2023-02-04T08:04:41;1.17;;;0.52;;
48552;SDS011;34335;51.566;6.994;2023-02-04T08:07:06;5.47;;;0.90;;
48552;SDS011;34335;51.566;6.994;2023-02-04T08:09:31;1.87;;;0.53;;
48552;SDS011;34335;51.566;6.994;2023-02-04T08:11:57;5.35;;;0.77;;
48552;SDS011;34335;51.566;6.994;2023-02-04T08:14:23;10.23;;;1.58;;
48552;SDS011;34335;51.566;6.994;2023-02-04T08:16:49;6.88;;;0.90;;
48552;SDS011;34335;51.566;6.994;2023-02-04T08:19:14;5.30;;;1.33;;
48552;SDS011;34335;51.566;6.994;2023-02-04T08:21:43;5.80;;;1.17;;
48552;SDS011;34335;51.566;6.994;2023-02-04T08:24:09;5.43;;;0.95;;
48552;SDS011;34335;51.566;6.994;2023-02-04T08:26:35;1.08;;;0.70;;
48552;SDS011;34335;51.566;6.994;2023-02-04T08:29:00;2.30;;;1.30;;
48552;SDS011;34335;51.566;6.994;2023-02-04T08:31:25;3.03;;;1.23;;
48552;SDS011;34335;51.566;6.994;2023-02-04T08:33:51;8.57;;;1.37;;
48552;SDS011;34335;51.566;6.994;2023-02-04T08:36:16;4.43;;;0.82;;
48552;SDS011;34335;51.566;6.994;2023-02-04T08:38:41;7.40;;;1.07;;
48552;SDS011;34335;51.566;6.994;2023-02-04T08:41:08;3.85;;;1.25;;
48552;SDS011;34335;51.566;6.994;2023-02-04T08:43:33;2.27;;;1.40;;
48552;SDS011;34335;51.566;6.994;2023-02-04T08:45:59;3.70;;;1.05;;
48552;SDS011;34335;51.566;6.994;2023-02-04T08:48:24;6.57;;;1.03;;
48552;SDS011;34335;51.566;6.994;2023-02-04T08:50:49;12.23;;;1.48;;
48552;SDS011;34335;51.566;6.994;2023-02-04T08:53:14;12.10;;;1.30;;
48552;SDS011;34335;51.566;6.994;2023-02-04T08:55:40;1.17;;;0.82;;
48552;SDS011;34335;51.566;6.994;2023-02-04T08:58:05;3.60;;;0.93;;
48552;SDS011;34335;51.566;6.994;2023-02-04T09:00:30;2.73;;;0.90;;
48552;SDS011;34335;51.566;6.994;2023-02-04T09:02:56;7.78;;;1.45;;
48552;SDS011;34335;51.566;6.994;2023-02-04T09:05:21;5.55;;;1.08;;
48552;SDS011;34335;51.566;6.994;2023-02-04T09:07:46;3.60;;;0.90;;
48552;SDS011;34335;51.566;6.994;2023-02-04T09:10:12;7.20;;;1.30;;
48552;SDS011;34335;51.566;6.994;2023-02-04T09:12:37;6.80;;;0.80;;
48552;SDS011;34335;51.566;6.994;2023-02-04T09:15:02;10.45;;;1.85;;
48552;SDS011;34335;51.566;6.994;2023-02-04T09:17:29;11.48;;;1.38;;
48552;SDS011;34335;51.566;6.994;2023-02-04T09:19:54;4.80;;;1.25;;
48552;SDS011;34335;51.566;6.994;2023-02-04T09:22:20;1.25;;;0.60;;
48552;SDS011;34335;51.566;6.994;2023-02-04T09:24:45;2.05;;;0.77;;
48552;SDS011;34335;51.566;6.994;2023-02-04T09:27:10;6.47;;;0.93;;
48552;SDS011;34335;51.566;6.994;2023-02-04T09:29:35;2.47;;;1.25;;
48552;SDS011;34335;51.566;6.994;2023-02-04T09:32:01;4.55;;;0.95;;
48552;SDS011;34335;51.566;6.994;2023-02-04T09:34:26;2.22;;;1.23;;
48552;SDS011;34335;51.566;6.994;2023-02-04T09:36:51;12.95;;;1.00;;
48552;SDS011;34335;51.566;6.994;2023-02-04T09:39:17;7.13;;;1.17;;
48552;SDS011;34335;51.566;6.994;2023-02-04T09:41:42;4.68;;;0.98;;
48552;SDS011;34335;51.566;6.994;2023-02-04T09:44:15;5.05;;;1.67;;
48552;SDS011;34335;51.566;6.994;2023-02-04T09:46:46;13.98;;;1.23;;
48552;SDS011;34335;51.566;6.994;2023-02-04T09:49:14;10.43;;;1.42;;
48552;SDS011;34335;51.566;6.994;2023-02-04T09:51:40;6.68;;;1.10;;
48552;SDS011;34335;51.566;6.994;2023-02-04T09:54:10;0.95;;;0.75;;
48552;SDS011;34335;51.566;6.994;2023-02-04T09:56:37;3.28;;;1.10;;
48552;SDS011;34335;51.566;6.994;2023-02-04T09:59:36;3.25;;;1.33;;
48552;SDS011;34335;51.566;6.994;2023-02-04T10:02:01;2.53;;;0.95;;
48552;SDS011;34335;51.566;6.994;2023-02-04T10:04:29;9.40;;;1.05;;
48552;SDS011;34335;51.566;6.994;2023-02-04T10:06:54;6.93;;;1.33;;
48552;SDS011;34335;51.566;6.994;2023-02-04T10:09:24;2.95;;;1.05;;
48552;SDS011;34335;51.566;6.994;2023-02-04T10:11:49;5.60;;;0.90;;
48552;SDS011;34335;51.566;6.994;2023-02-04T10:14:16;4.97;;;1.27;;
48552;SDS011;34335;51.566;6.994;2023-02-04T10:16:46;4.78;;;1.52;;
48552;SDS011;34335;51.566;6.994;2023-02-04T10:19:24;1.42;;;0.73;;
48552;SDS011;34335;51.566;6.994;2023-02-04T10:21:51;6.47;;;1.23;;
48552;SDS011;34335;51.566;6.994;2023-02-04T10:24:20;13.63;;;1.50;;
48552;SDS011;34335;51.566;6.994;2023-02-04T10:26:50;5.65;;;0.95;;
48552;SDS011;34335;51.566;6.994;2023-02-04T10:29:22;10.05;;;1.27;;
48552;SDS011;34335;51.566;6.994;2023-02-04T10:31:49;3.85;;;0.68;;
48552;SDS011;34335;51.566;6.994;2023-02-04T10:34:16;8.10;;;0.82;;
48552;SDS011;34335;51.566;6.994;2023-02-04T10:36:46;6.57;;;1.98;;
48552;SDS011;34335;51.566;6.994;2023-02-04T10:39:20;16.30;;;2.25;;
48552;SDS011;34335;51.566;6.994;2023-02-04T10:41:48;7.22;;;1.60;;
48552;SDS011;34335;51.566;6.994;2023-02-04T10:44:17;2.80;;;1.35;;
48552;SDS011;34335;51.566;6.994;2023-02-04T10:46:45;5.72;;;1.10;;
48552;SDS011;34335;51.566;6.994;2023-02-04T10:49:17;5.45;;;1.23;;
48552;SDS011;34335;51.566;6.994;2023-02-04T10:51:45;11.07;;;1.67;;
48552;SDS011;34335;51.566;6.994;2023-02-04T10:54:12;13.25;;;1.75;;
48552;SDS011;34335;51.566;6.994;2023-02-04T10:56:59;4.75;;;1.60;;
48552;SDS011;34335;51.566;6.994;2023-02-04T10:59:31;5.85;;;1.65;;
48552;SDS011;34335;51.566;6.994;2023-02-04T11:01:58;5.13;;;1.40;;
48552;SDS011;34335;51.566;6.994;2023-02-04T11:04:25;3.63;;;1.30;;
48552;SDS011;34335;51.566;6.994;2023-02-04T11:06:52;4.47;;;1.05;;
48552;SDS011;34335;51.566;6.994;2023-02-04T11:09:18;9.80;;;1.73;;
48552;SDS011;34335;51.566;6.994;2023-02-04T11:11:44;12.68;;;2.55;;
48552;SDS011;34335;51.566;6.994;2023-02-04T11:14:25;10.48;;;1.27;;
48552;SDS011;34335;51.566;6.994;2023-02-04T11:16:53;9.23;;;2.15;;
48552;SDS011;34335;51.566;6.994;2023-02-04T11:19:37;6.30;;;1.92;;
48552;SDS011;34335;51.566;6.994;2023-02-04T11:22:07;5.63;;;2.15;;
48552;SDS011;34335;51.566;6.994;2023-02-04T11:24:47;4.28;;;1.20;;
48552;SDS011;34335;51.566;6.994;2023-02-04T11:27:35;10.15;;;2.33;;
48552;SDS011;34335;51.566;6.994;2023-02-04T11:30:16;10.55;;;2.45;;
48552;SDS011;34335;51.566;6.994;2023-02-04T11:32:54;5.60;;;1.73;;
48552;SDS011;34335;51.566;6.994;2023-02-04T11:35:25;5.68;;;2.20;;
48552;SDS011;34335;51.566;6.994;2023-02-04T11:37:52;2.58;;;1.42;;
48552;SDS011;34335;51.566;6.994;2023-02-04T11:40:31;9.35;;;2.53;;
48552;SDS011;34335;51.566;6.994;2023-02-04T11:43:14;10.35;;;2.58;;
48552;SDS011;34335;51.566;6.994;2023-02-04T11:45:40;6.03;;;1.65;;
48552;SDS011;34335;51.566;6.994;2023-02-04T11:48:13;5.18;;;1.98;;
48552;SDS011;34335;51.566;6.994;2023-02-04T11:50:41;10.80;;;1.95;;
48552;SDS011;34335;51.566;6.994;2023-02-04T11:53:09;4.30;;;2.38;;
48552;SDS011;34335;51.566;6.994;2023-02-04T11:55:36;13.38;;;1.85;;
48552;SDS011;34335;51.566;6.994;2023-02-04T11:58:15;8.73;;;2.13;;
48552;SDS011;34335;51.566;6.994;2023-02-04T12:00:42;5.80;;;2.25;;
48552;SDS011;34335;51.566;6.994;2023-02-04T12:03:27;11.27;;;2.53;;
48552;SDS011;34335;51.566;6.994;2023-02-04T12:05:55;11.95;;;2.53;;
48552;SDS011;34335;51.566;6.994;2023-02-04T12:11:09;6.60;;;1.70;;
48552;SDS011;34335;51.566;6.994;2023-02-04T12:13:46;5.80;;;1.95;;
48552;SDS011;34335;51.566;6.994;2023-02-04T12:16:13;10.57;;;2.17;;
48552;SDS011;34335;51.566;6.994;2023-02-04T12:18:39;8.40;;;2.83;;
48552;SDS011;34335;51.566;6.994;2023-02-04T12:21:05;12.10;;;2.95;;
48552;SDS011;34335;51.566;6.994;2023-02-04T12:23:30;11.32;;;2.78;;
48552;SDS011;34335;51.566;6.994;2023-02-04T12:25:56;7.07;;;2.10;;
48552;SDS011;34335;51.566;6.994;2023-02-04T12:28:22;10.57;;;3.03;;
48552;SDS011;34335;51.566;6.994;2023-02-04T12:30:48;7.32;;;2.35;;
48552;SDS011;34335;51.566;6.994;2023-02-04T12:33:13;5.20;;;1.98;;
48552;SDS011;34335;51.566;6.994;2023-02-04T12:35:39;5.93;;;2.00;;
48552;SDS011;34335;51.566;6.994;2023-02-04T12:38:05;12.52;;;2.10;;
48552;SDS011;34335;51.566;6.994;2023-02-04T12:40:31;8.70;;;2.00;;
48552;SDS011;34335;51.566;6.994;2023-02-04T12:42:56;6.07;;;1.52;;
48552;SDS011;34335;51.566;6.994;2023-02-04T12:45:21;9.05;;;1.52;;
48552;SDS011;34335;51.566;6.994;2023-02-04T12:47:46;8.83;;;1.60;;
48552;SDS011;34335;51.566;6.994;2023-02-04T12:50:13;6.55;;;1.27;;
48552;SDS011;34335;51.566;6.994;2023-02-04T12:52:46;5.05;;;1.25;;
48552;SDS011;34335;51.566;6.994;2023-02-04T12:55:12;2.03;;;1.05;;
48552;SDS011;34335;51.566;6.994;2023-02-04T12:57:37;3.20;;;1.07;;
48552;SDS011;34335;51.566;6.994;2023-02-04T13:00:03;3.90;;;0.80;;
48552;SDS011;34335;51.566;6.994;2023-02-04T13:02:28;7.65;;;1.77;;
48552;SDS011;34335;51.566;6.994;2023-02-04T13:04:54;13.02;;;2.05;;
48552;SDS011;34335;51.566;6.994;2023-02-04T13:07:21;5.57;;;1.50;;
48552;SDS011;34335;51.566;6.994;2023-02-04T13:09:47;5.47;;;1.30;;
48552;SDS011;34335;51.566;6.994;2023-02-04T13:12:13;1.55;;;0.80;;
48552;SDS011;34335;51.566;6.994;2023-02-04T13:14:39;10.50;;;1.45;;
48552;SDS011;34335;51.566;6.994;2023-02-04T13:17:05;1.00;;;0.82;;
48552;SDS011;34335;51.566;6.994;2023-02-04T13:19:30;4.40;;;1.17;;
48552;SDS011;34335;51.566;6.994;2023-02-04T13:21:56;4.05;;;0.85;;
48552;SDS011;34335;51.566;6.994;2023-02-04T13:24:22;4.57;;;1.10;;
48552;SDS011;34335;51.566;6.994;2023-02-04T13:26:47;3.45;;;0.40;;
48552;SDS011;34335;51.566;6.994;2023-02-04T13:29:12;7.90;;;1.43;;
48552;SDS011;34335;51.566;6.994;2023-02-04T13:31:38;2.00;;;0.55;;
48552;SDS011;34335;51.566;6.994;2023-02-04T13:34:03;3.37;;;1.00;;
48552;SDS011;34335;51.566;6.994;2023-02-04T13:36:28;6.70;;;1.37;;
48552;SDS011;34335;51.566;6.994;2023-02-04T13:38:54;5.03;;;1.17;;
48552;SDS011;34335;51.566;6.994;2023-02-04T13:41:19;3.38;;;1.05;;
48552;SDS011;34335;51.566;6.994;2023-02-04T13:43:45;6.63;;;1.20;;
48552;SDS011;34335;51.566;6.994;2023-02-04T13:46:10;2.80;;;0.87;;
48552;SDS011;34335;51.566;6.994;2023-02-04T13:48:35;1.98;;;0.70;;
48552;SDS011;34335;51.566;6.994;2023-02-04T13:51:00;3.40;;;0.93;;
48552;SDS011;34335;51.566;6.994;2023-02-04T13:53:26;5.37;;;1.03;;
48552;SDS011;34335;51.566;6.994;2023-02-04T13:55:55;2.45;;;0.95;;
48552;SDS011;34335;51.566;6.994;2023-02-04T13:58:21;5.15;;;0.85;;
48552;SDS011;34335;51.566;6.994;2023-02-04T14:00:46;10.37;;;1.20;;
48552;SDS011;34335;51.566;6.994;2023-02-04T14:03:11;10.77;;;1.17;;
48552;SDS011;34335;51.566;6.994;2023-02-04T14:05:37;6.30;;;0.93;;
48552;SDS011;34335;51.566;6.994;2023-02-04T14:08:02;5.00;;;1.00;;
48552;SDS011;34335;51.566;6.994;2023-02-04T14:10:27;4.22;;;0.95;;
48552;SDS011;34335;51.566;6.994;2023-02-04T14:12:53;2.40;;;0.65;;
48552;SDS011;34335;51.566;6.994;2023-02-04T14:15:18;3.42;;;0.93;;
48552;SDS011;34335;51.566;6.994;2023-02-04T14:17:43;7.13;;;2.17;;
48552;SDS011;34335;51.566;6.994;2023-02-04T14:20:09;5.87;;;1.13;;
48552;SDS011;34335;51.566;6.994;2023-02-04T14:22:34;4.43;;;1.10;;
48552;SDS011;34335;51.566;6.994;2023-02-04T14:25:00;8.45;;;1.15;;
48552;SDS011;34335;51.566;6.994;2023-02-04T14:27:25;1.33;;;0.65;;
48552;SDS011;34335;51.566;6.994;2023-02-04T14:29:51;10.73;;;1.75;;
48552;SDS011;34335;51.566;6.994;2023-02-04T14:32:16;2.38;;;0.93;;
48552;SDS011;34335;51.566;6.994;2023-02-04T14:34:42;5.45;;;0.88;;
48552;SDS011;34335;51.566;6.994;2023-02-04T14:37:07;9.32;;;1.67;;
48552;SDS011;34335;51.566;6.994;2023-02-04T14:39:32;4.53;;;0.93;;
48552;SDS011;34335;51.566;6.994;2023-02-04T14:41:57;8.32;;;1.25;;
48552;SDS011;34335;51.566;6.994;2023-02-04T14:44:23;8.53;;;1.30;;
48552;SDS011;34335;51.566;6.994;2023-02-04T14:46:48;5.00;;;0.90;;